Latest Weather Observations for Launceston Airport

IDT60801

Issued at 11:02 am EST Sunday 26 April 2015 (issued every 30 minutes, with the page automatically refreshed every 10 minutes)

About weather observations | Map of weather stations | Latest weather observations for TAS | Other Formats
Station Details ID: 091311 Name: LAUNCESTON AIRPORT Lat: -41.55 Lon: 147.21 Height: 166.9 m
Data from the previous 72 hours. | See also: Recent months at Launceston Airport
Date/Time
EST
Temp
°C
App
Temp
°C
Dew
Point
Rel
Hum
%
Delta-T
°C
Wind Press
QNH
hPa
Press
MSL
hPa
Rain
since 9 am
mm
Dir
 
Spd
km/h
Gust
km/h
Spd
kts
Gust
kts
26/11:00am 11.4 8.0 1.9 52 4.1 SSE 9 19 5 10 1013.5 1013.5 0.0
26/10:30am 11.3 7.3 2.6 55 3.8 SSE 13 20 7 11 1013.6 1013.6 0.0
26/10:00am 10.5 6.1 2.6 58 3.4 SE 15 20 8 11 1013.9 1013.9 0.0
26/09:30am 9.5 5.5 2.6 62 3.0 SE 13 19 7 10 1014.1 1014.1 0.0
26/09:00am 9.1 4.7 2.9 65 2.7 SSE 15 19 8 10 1014.1 1014.1 0.0
26/08:30am 8.7 4.5 3.7 71 2.2 SE 15 19 8 10 1014.0 1014.0 0.0
26/08:00am 8.5 4.0 4.1 74 1.9 SSE 17 20 9 11 1013.9 1013.9 0.0
26/07:30am 7.9 3.5 4.7 80 1.4 SSE 17 20 9 11 1013.5 1013.5 0.0
26/07:00am 7.5 3.5 4.8 83 1.2 SSE 15 20 8 11 1013.0 1013.0 0.0
26/06:30am 7.7 3.8 5.2 84 1.1 SSE 15 19 8 10 1012.7 1012.7 0.0
26/05:30am 7.3 3.0 5.3 87 0.9 SSE 17 20 9 11 1012.2 1012.2 0.0
26/05:00am 7.4 2.7 5.2 86 1.0 SSE 19 24 10 13 1012.2 1012.2 0.0
26/04:30am 8.0 3.4 5.5 84 1.1 SSE 19 22 10 12 1012.1 1012.0 0.0
26/04:00am 8.2 4.0 5.5 83 1.2 SSE 17 22 9 12 1012.2 1012.2 0.0
26/03:30am 8.2 3.5 5.3 82 1.3 SSE 19 24 10 13 1012.1 1012.0 0.0
26/03:00am 8.6 3.8 5.5 81 1.4 SSE 20 28 11 15 1012.1 1012.0 0.0
26/02:30am 8.6 4.3 5.4 80 1.5 SSE 17 22 9 12 1012.3 1012.3 0.0
26/02:00am 8.7 4.1 5.8 82 1.3 SSE 19 22 10 12 1012.2 1012.2 0.0
26/01:30am 8.9 4.4 6.0 82 1.3 SE 19 22 10 12 1012.4 1012.4 0.0
26/01:00am 9.0 4.9 6.1 82 1.3 SSE 17 20 9 11 1012.4 1012.4 0.0
26/12:30am 8.9 4.8 6.0 82 1.3 SSE 17 22 9 12 1012.5 1012.5 0.0
26/12:00am 9.1 4.3 5.8 80 1.5 SSE 20 24 11 13 1012.3 1012.3 0.0
 
Date/Time
EST
Temp
°C
App
Temp
°C
Dew
Point
Rel
Hum
%
Delta-T
°C
Wind Press
QNH
hPa
Press
MSL
hPa
Rain
since 9 am
mm
Dir
 
Spd
km/h
Gust
km/h
Spd
kts
Gust
kts
25/11:30pm 9.3 4.6 6.0 80 1.5 SSE 20 24 11 13 1012.5 1012.5 0.0
25/11:00pm 9.3 4.2 6.2 81 1.4 SSE 22 30 12 16 1012.5 1012.5 0.0
25/10:30pm 9.4 4.4 6.3 81 1.4 SSE 22 30 12 16 1012.4 1012.4 0.0
25/10:00pm 9.6 4.2 6.3 80 1.5 SSE 24 30 13 16 1012.5 1012.5 0.0
25/09:30pm 9.5 4.2 6.8 83 1.3 SSE 24 28 13 15 1012.4 1012.4 0.0
25/09:00pm 9.7 4.5 7.1 84 1.2 SSE 24 30 13 16 1012.3 1012.3 0.0
25/08:30pm 10.5 5.5 6.6 77 1.8 S 22 32 12 17 1012.2 1012.2 0.0
25/08:00pm 10.9 6.1 7.2 78 1.8 S 22 28 12 15 1011.7 1011.7 0.0
25/07:30pm 11.2 6.9 7.7 79 1.7 S 20 24 11 13 1011.5 1011.5 0.0
25/07:00pm 11.7 7.9 7.4 75 2.1 SSE 17 24 9 13 1011.2 1011.2 0.0
25/06:30pm 11.8 7.0 7.5 75 2.1 SSE 22 28 12 15 1010.9 1010.9 0.0
25/06:00pm 11.8 7.5 7.9 77 1.9 SE 20 24 11 13 1010.5 1010.5 0.0
25/05:30pm 12.0 7.7 7.7 75 2.1 SE 20 26 11 14 1010.0 1010.0 0.0
25/05:00pm 12.3 7.9 7.6 73 2.3 SE 20 28 11 15 1009.7 1009.7 0.0
25/04:30pm 12.5 7.0 7.4 71 2.5 SE 26 32 14 17 1009.5 1009.5 0.0
25/04:00pm 13.9 8.4 7.4 65 3.2 SE 26 33 14 18 1009.3 1009.3 0.0
25/03:30pm 14.9 9.4 7.7 62 3.6 SE 26 33 14 18 1009.2 1009.2 0.0
25/03:00pm 14.9 9.4 7.5 61 3.7 SSE 26 32 14 17 1009.0 1009.0 0.0
25/02:30pm 15.5 10.1 7.8 60 3.9 SSE 26 35 14 19 1008.8 1008.8 0.0
25/02:00pm 15.8 10.7 7.6 58 4.1 SSE 24 32 13 17 1008.6 1008.6 0.0
25/01:30pm 16.0 11.0 8.2 60 4.0 SSE 24 33 13 18 1008.5 1008.5 0.0
25/01:00pm 15.5 10.1 7.8 60 3.9 SSE 26 35 14 19 1008.6 1008.6 0.0
25/12:30pm 14.5 8.7 8.0 65 3.3 SSE 28 35 15 19 1008.7 1008.7 0.0
25/12:00pm 15.1 10.2 8.3 64 3.5 SE 24 33 13 18 1009.0 1009.0 0.0
25/11:30am 14.4 8.7 8.4 67 3.0 SE 28 35 15 19 1009.1 1009.1 0.0
25/11:00am 13.8 8.8 8.0 68 2.9 SSE 24 32 13 17 1009.2 1009.2 0.0
25/10:30am 13.8 9.0 8.8 72 2.5 SE 24 32 13 17 1009.2 1009.2 0.0
25/10:00am 13.2 7.8 7.9 70 2.6 SSE 26 35 14 19 1009.1 1009.1 0.0
25/09:30am 13.1 8.1 8.2 72 2.5 SE 24 32 13 17 1009.0 1009.0 0.0
25/09:00am 12.8 7.7 9.1 78 1.9 SE 26 32 14 17 1008.9 1008.9 8.4
25/08:30am 11.8 7.3 8.5 80 1.6 SE 22 28 12 15 1008.6 1008.6 8.4
25/08:00am 11.0 8.3 8.8 86 1.1 SSE 13 17 7 9 1008.5 1008.5 8.4
25/07:30am 10.5 7.0 8.6 88 0.9 SE 17 19 9 10 1008.0 1008.0 8.4
25/07:00am 10.5 7.0 8.8 89 0.8 SSE 17 20 9 11 1007.6 1007.6 8.4
25/06:30am 10.6 6.5 8.5 87 1.0 SSE 20 26 11 14 1007.1 1007.1 8.4
25/06:00am 9.7 6.1 8.5 92 0.6 SSE 17 22 9 12 1006.5 1006.4 8.4
25/05:30am 9.4 5.8 8.3 93 0.5 SSE 17 19 9 10 1006.1 1006.0 8.4
25/05:00am 9.6 6.4 8.5 93 0.5 SSE 15 19 8 10 1005.8 1005.7 8.4
25/04:30am 10.1 7.5 9.3 95 0.4 SSE 13 17 7 9 1005.3 1005.3 8.4
25/04:00am 10.6 8.1 9.8 95 0.4 S 13 15 7 8 1005.1 1005.1 8.4
25/03:30am 10.8 8.8 10.2 96 0.3 S 11 13 6 7 1005.0 1005.0 8.4
25/03:00am 10.9 8.6 10.3 96 0.3 S 13 17 7 9 1004.7 1004.7 8.4
25/02:53am 11.0 9.1 10.4 96 0.3 S 11 13 6 7 1004.7 1004.7 8.4
25/02:30am 11.2 9.7 10.6 96 0.3 S 9 11 5 6 1004.7 1004.7 8.4
25/02:02am 11.3 10.2 10.7 96 0.3 S 7 9 4 5 1004.8 1004.8 8.4
25/02:00am 11.3 10.2 10.7 96 0.3 S 7 9 4 5 1004.8 1004.8 8.4
25/01:30am 11.4 10.0 10.8 96 0.3 S 9 11 5 6 1004.6 1004.6 8.4
25/01:00am 11.5 10.1 10.9 96 0.3 S 9 11 5 6 1004.4 1004.4 8.4
25/12:30am 11.5 10.1 10.9 96 0.3 SSW 9 11 5 6 1004.3 1004.3 8.4
25/12:00am 11.5 9.7 10.9 96 0.3 S 11 15 6 8 1004.2 1004.2 8.4
 
Date/Time
EST
Temp
°C
App
Temp
°C
Dew
Point
Rel
Hum
%
Delta-T
°C
Wind Press
QNH
hPa
Press
MSL
hPa
Rain
since 9 am
mm
Dir
 
Spd
km/h
Gust
km/h
Spd
kts
Gust
kts
24/11:33pm 11.6 10.2 11.0 96 0.3 S 9 13 5 7 1004.0 1004.0 8.4
24/11:30pm 11.5 10.1 10.9 96 0.3 S 9 11 5 6 1004.0 1004.0 8.4
24/11:00pm 11.2 11.0 10.4 95 0.4 SE 2 7 1 4 1003.9 1003.9 8.4
24/10:56pm 11.0 10.0 10.2 95 0.4 SE 6 9 3 5 1003.9 1003.9 8.4
24/10:30pm 11.6 10.2 10.8 95 0.4 S 9 11 5 6 1003.9 1003.9 8.4
24/10:00pm 11.8 10.8 11.0 95 0.4 S 7 13 4 7 1003.9 1003.9 8.2
24/09:30pm 11.9 9.8 11.1 95 0.4 S 13 15 7 8 1003.7 1003.7 8.2
24/09:00pm 11.9 9.8 11.3 96 0.3 SSW 13 15 7 8 1003.6 1003.6 7.8
24/08:30pm 11.8 10.1 11.2 96 0.3 S 11 13 6 7 1002.9 1002.9 7.6
24/08:29pm 11.8 10.1 11.2 96 0.3 S 11 15 6 8 1002.9 1002.9 7.6
24/08:12pm 11.8 10.4 11.0 95 0.4 SSE 9 11 5 6 1002.9 1002.9 7.4
24/08:00pm 11.9 10.6 11.1 95 0.4 S 9 11 5 6 1002.8 1002.8 7.4
24/07:51pm 11.9 10.6 11.1 95 0.4 S 9 11 5 6 1002.8 1002.8 7.4
24/07:31pm 11.9 10.6 11.1 95 0.4 SSW 9 9 5 5 1002.8 1002.8 7.0
24/07:30pm 11.9 10.9 11.1 95 0.4 SSW 7 9 4 5 1002.8 1002.8 7.0
24/07:28pm 11.9 10.9 11.1 95 0.4 SW 7 9 4 5 1002.8 1002.8 7.0
24/07:15pm 12.0 10.7 11.2 95 0.4 SW 9 11 5 6 1002.9 1002.9 7.0
24/07:00pm 11.9 10.6 11.1 95 0.4 S 9 11 5 6 1002.8 1002.8 6.8
24/06:37pm 11.9 10.9 11.0 94 0.5 S 7 9 4 5 1002.7 1002.7 6.6
24/06:30pm 12.0 10.7 11.1 94 0.5 S 9 9 5 5 1002.7 1002.7 6.4
24/06:10pm 12.0 11.0 11.1 94 0.5 WSW 7 9 4 5 1002.6 1002.6 5.4
24/06:00pm 12.1 10.8 11.2 94 0.5 W 9 9 5 5 1002.6 1002.6 5.0
24/05:30pm 12.1 11.3 11.2 94 0.5 SW 6 7 3 4 1002.4 1002.4 4.6
24/05:00pm 12.1 10.8 11.2 94 0.5 SSE 9 11 5 6 1001.9 1001.8 4.6
24/04:30pm 12.2 11.2 11.1 93 0.6 SE 7 9 4 5 1001.8 1001.7 4.2
24/04:00pm 12.2 10.8 10.9 92 0.7 SE 9 11 5 6 1001.9 1001.8 3.6
24/03:30pm 12.5 10.8 11.1 91 0.7 SSE 11 15 6 8 1002.1 1002.1 2.4
24/03:00pm 12.6 10.9 11.2 91 0.7 SSE 11 15 6 8 1002.3 1002.3 2.2
24/02:30pm 12.6 10.1 11.2 91 0.7 SSE 15 19 8 10 1002.3 1002.3 2.2
24/02:00pm 12.7 10.6 11.3 91 0.7 S 13 17 7 9 1002.4 1002.4 2.0
24/01:30pm 12.7 10.6 11.3 91 0.7 S 13 17 7 9 1002.6 1002.6 2.0
24/01:14pm 12.4 9.9 11.0 91 0.7 S 15 19 8 10 1002.8 1002.8 2.0
24/01:00pm 12.7 9.8 11.1 90 0.9 S 17 20 9 11 1003.0 1003.0 2.0
24/12:47pm 13.0 11.0 11.6 91 0.8 SSE 13 15 7 8 1003.1 1003.1 2.0
24/12:30pm 12.8 10.3 11.0 89 1.0 SSE 15 19 8 10 1003.3 1003.3 1.8
24/12:00pm 12.7 9.2 10.9 89 1.0 SSE 20 24 11 13 1003.7 1003.7 1.8
24/11:30am 12.8 9.5 11.5 92 0.7 SE 20 24 11 13 1004.0 1004.0 1.8
24/11:00am 12.7 10.0 11.8 94 0.5 SE 17 20 9 11 1004.4 1004.4 1.2
24/10:57am 12.7 10.4 11.8 94 0.5 SSE 15 20 8 11 1004.4 1004.4 1.2
24/10:47am 12.4 10.0 11.5 94 0.5 SSE 15 19 8 10 1004.5 1004.5 1.2
24/10:37am 12.3 9.5 11.4 94 0.5 SSE 17 20 9 11 1004.6 1004.6 1.0
24/10:30am 12.4 9.6 11.5 94 0.5 S 17 20 9 11 1004.7 1004.7 0.8
24/10:00am 12.2 10.2 11.4 95 0.4 S 13 17 7 9 1004.9 1004.9 0.4
24/09:57am 12.0 9.9 11.2 95 0.4 S 13 15 7 8 1005.0 1005.0 0.4
24/09:51am 12.2 10.2 11.4 95 0.4 SSE 13 17 7 9 1004.9 1004.9 0.4
24/09:48am 12.0 9.5 11.2 95 0.4 SSE 15 17 8 9 1004.9 1004.9 0.4
24/09:40am 11.9 9.8 11.1 95 0.4 SSE 13 17 7 9 1005.0 1005.0 0.4
24/09:30am 11.8 9.3 11.0 95 0.4 SSE 15 17 8 9 1005.1 1005.1 0.4
24/09:29am 11.7 9.2 10.9 95 0.4 SSE 15 17 8 9 1005.1 1005.1 0.4
24/09:00am 11.4 8.8 10.6 95 0.4 S 15 20 8 11 1005.4 1005.4 -
24/08:30am 11.3 8.3 10.5 95 0.4 SSE 17 22 9 12 1005.5 1005.5 -
24/08:00am 10.9 8.2 10.3 96 0.3 S 15 19 8 10 1005.8 1005.7 -
24/07:30am 10.7 7.9 10.1 96 0.3 S 15 19 8 10 1005.8 1005.7 -
24/07:16am 10.7 8.3 10.1 96 0.3 S 13 17 7 9 1005.7 1005.6 -
24/07:00am 10.6 7.8 10.0 96 0.3 S 15 17 8 9 1005.7 1005.6 -
24/06:30am 10.6 8.9 10.0 96 0.3 S 9 13 5 7 1005.8 1005.7 -
24/06:00am 10.6 8.5 9.8 95 0.4 SSE 11 13 6 7 1006.0 1005.9 -
24/05:51am 10.6 8.5 9.8 95 0.4 SSE 11 13 6 7 1006.1 1006.0 -
24/05:48am 10.6 8.5 9.8 95 0.4 SSE 11 13 6 7 1006.1 1006.0 -
24/05:30am 10.6 8.9 9.8 95 0.4 SSE 9 11 5 6 1006.2 1006.1 -
24/05:00am 10.8 9.1 9.7 93 0.6 S 9 13 5 7 1006.6 1006.5 -
24/04:42am 10.8 9.4 9.7 93 0.6 S 7 11 4 6 1006.8 1006.7 -
24/04:30am 10.8 9.4 9.7 93 0.6 SSW 7 11 4 6 1006.9 1006.8 -
24/04:00am 10.8 9.1 9.7 93 0.6 SSE 9 11 5 6 1007.0 1006.9 -
24/03:30am 10.9 10.1 9.7 92 0.6 S 4 11 2 6 1007.0 1006.9 -
24/03:00am 10.9 9.1 9.5 91 0.7 SSW 9 11 5 6 1007.5 1007.5 0.0
24/02:30am 10.9 9.2 9.7 92 0.6 SSW 9 13 5 7 1008.2 1008.2 -
24/02:00am 10.8 8.3 9.7 93 0.6 S 13 17 7 9 1008.5 1008.5 -
24/01:30am 10.7 8.2 9.6 93 0.6 S 13 17 7 9 1008.9 1008.9 -
24/01:00am 10.9 8.0 9.7 92 0.6 SSE 15 20 8 11 1009.3 1009.3 -
24/12:30am 10.9 7.6 9.7 92 0.6 SSE 17 20 9 11 1010.0 1010.0 -
24/12:00am 10.9 7.5 9.3 90 0.8 SSE 17 22 9 12 1010.7 1010.7 -
 
Date/Time
EST
Temp
°C
App
Temp
°C
Dew
Point
Rel
Hum
%
Delta-T
°C
Wind Press
QNH
hPa
Press
MSL
hPa
Rain
since 9 am
mm
Dir
 
Spd
km/h
Gust
km/h
Spd
kts
Gust
kts
23/11:30pm 11.1 7.8 9.4 89 0.9 SSE 17 20 9 11 1011.3 1011.3 -
23/11:00pm 11.2 7.9 9.5 89 0.9 SSE 17 20 9 11 1011.7 1011.7 -
23/10:30pm 11.4 9.2 9.5 88 1.0 S 11 17 6 9 1012.4 1012.4 -
23/10:00pm 11.6 8.6 9.3 86 1.2 S 15 19 8 10 1013.0 1013.0 -
23/09:30pm 12.0 8.7 9.4 84 1.3 SSE 17 20 9 11 1013.4 1013.4 -
23/09:00pm 12.2 9.2 9.2 82 1.5 SSE 15 20 8 11 1013.7 1013.7 0.0
23/08:30pm 12.2 9.1 9.0 81 1.6 SSE 15 19 8 10 1013.6 1013.6 -
23/08:00pm 12.3 9.2 8.8 79 1.8 S 15 19 8 10 1013.6 1013.6 -
23/07:30pm 12.3 8.8 8.6 78 1.9 SSE 17 20 9 11 1013.7 1013.7 -
23/07:00pm 12.7 9.2 8.8 77 2.0 S 17 20 9 11 1014.1 1014.1 -
23/06:30pm 13.4 10.3 8.7 73 2.4 S 15 20 8 11 1014.4 1014.4 -
23/06:00pm 14.2 10.7 8.8 70 2.8 SSE 17 22 9 12 1014.3 1014.3 -
23/05:30pm 15.0 10.6 8.9 67 3.1 SE 22 30 12 16 1014.2 1014.2 -
23/05:00pm 15.9 11.2 9.1 64 3.5 SSE 24 32 13 17 1014.1 1014.1 -
23/04:30pm 17.2 12.3 8.6 57 4.5 SSE 24 32 13 17 1014.4 1014.4 -
23/04:00pm 17.6 12.4 8.7 56 4.6 S 26 32 14 17 1014.9 1014.9 -
23/03:58pm 17.7 12.9 8.8 56 4.6 S 24 32 13 17 1014.9 1014.9 -
23/03:54pm 17.7 12.6 9.1 57 4.5 S 26 32 14 17 1014.9 1014.9 -
23/03:42pm 17.7 12.6 9.1 57 4.5 S 26 35 14 19 1015.1 1015.1 -
23/03:30pm 17.6 12.7 8.5 55 4.7 SSE 24 30 13 16 1015.3 1015.3 -
23/02:30pm 17.6 12.8 9.0 57 4.5 S 24 30 13 16 1016.2 1016.2 0.0
23/02:00pm 17.8 12.9 8.6 55 4.8 S 24 30 13 16 1016.5 1016.5 0.0
23/01:30pm 18.0 13.1 8.6 54 4.9 SSE 24 30 13 16 1017.0 1017.0 0.0
23/01:00pm 18.1 14.2 8.7 54 4.9 SSE 19 28 10 15 1017.7 1017.8 0.0
23/12:30pm 16.9 12.8 8.8 59 4.2 SSE 20 28 11 15 1018.5 1018.5 0.0
23/12:00pm 17.3 13.0 9.2 59 4.2 SSE 22 30 12 16 1019.3 1019.3 0.0
23/11:30am 16.9 12.2 9.3 61 4.0 SSE 24 28 13 15 1020.0 1020.0 0.0

Other Formats:

Comma delimited format used in spreadsheet applications
http://www.bom.gov.au/fwo/IDT60801/IDT60801.95966.axf

JavaScript Object Notation format (JSON) in row-major order
http://www.bom.gov.au/fwo/IDT60801/IDT60801.95966.json